createdAt,value
2022-11-18T00:01:22.916Z,21.27
2022-11-18T00:03:53.004Z,20.17
2022-11-18T00:06:26.680Z,21.35
2022-11-18T00:08:55.648Z,21.38
2022-11-18T00:11:45.078Z,21.13
2022-11-18T00:14:19.167Z,21.08
2022-11-18T00:16:51.027Z,21.25
2022-11-18T00:19:21.135Z,20.20
2022-11-18T00:21:49.761Z,21.67
2022-11-18T00:24:18.153Z,20.40
2022-11-18T00:26:46.734Z,19.25
2022-11-18T00:29:14.485Z,18.55
2022-11-18T00:31:42.615Z,18.73
2022-11-18T00:34:13.867Z,18.55
2022-11-18T00:36:43.053Z,20.73
2022-11-18T00:39:13.459Z,22.08
2022-11-18T00:42:00.825Z,23.85
2022-11-18T00:44:28.189Z,22.45
2022-11-18T00:46:56.125Z,25.30
2022-11-18T00:49:24.470Z,19.20
2022-11-18T00:51:52.170Z,19.10
2022-11-18T00:54:19.806Z,22.38
2022-11-18T00:56:47.364Z,21.77
2022-11-18T00:59:14.667Z,18.67
2022-11-18T01:01:42.275Z,21.20
2022-11-18T01:04:09.468Z,22.80
2022-11-18T01:06:36.884Z,22.75
2022-11-18T01:09:04.336Z,20.55
2022-11-18T01:11:50.365Z,21.23
2022-11-18T01:14:18.127Z,20.42
2022-11-18T01:16:51.119Z,25.98
2022-11-18T01:19:19.334Z,30.15
2022-11-18T01:21:47.518Z,25.85
2022-11-18T01:24:14.846Z,23.42
2022-11-18T01:26:42.586Z,23.10
2022-11-18T01:29:10.394Z,21.40
2022-11-18T01:31:50.178Z,21.08
2022-11-18T01:34:29.431Z,19.58
2022-11-18T01:36:58.624Z,24.30
2022-11-18T01:39:26.258Z,21.60
2022-11-18T01:41:53.774Z,24.92
2022-11-18T01:44:58.501Z,24.65
2022-11-18T01:47:40.923Z,22.00
2022-11-18T01:50:09.811Z,21.42
2022-11-18T01:52:40.225Z,23.15
2022-11-18T01:55:24.060Z,22.33
2022-11-18T01:57:59.492Z,22.08
2022-11-18T02:00:26.647Z,21.55
2022-11-18T02:02:54.485Z,21.67
2022-11-18T02:05:22.789Z,23.02
2022-11-18T02:07:51.458Z,23.52
2022-11-18T02:10:23.775Z,23.85
2022-11-18T02:12:54.417Z,24.15
2022-11-18T02:15:45.420Z,22.52
2022-11-18T02:18:56.731Z,23.55
2022-11-18T02:21:32.285Z,23.55
2022-11-18T02:24:27.320Z,21.77
2022-11-18T02:27:58.240Z,20.55
2022-11-18T02:30:26.423Z,20.67
2022-11-18T02:33:10.371Z,22.15
2022-11-18T02:35:46.915Z,22.70
2022-11-18T02:38:31.361Z,21.40
2022-11-18T02:41:08.160Z,22.98
2022-11-18T02:43:46.137Z,20.55
2022-11-18T02:46:24.012Z,20.35
2022-11-18T02:48:54.330Z,21.90
2022-11-18T02:51:28.536Z,23.70
2022-11-18T02:54:02.971Z,25.60
2022-11-18T02:56:33.135Z,24.60
2022-11-18T02:59:00.325Z,21.80
2022-11-18T03:01:32.578Z,20.83
2022-11-18T03:04:00.357Z,20.30
2022-11-18T03:06:55.937Z,24.73
2022-11-18T03:09:38.274Z,23.77
2022-11-18T03:12:18.848Z,21.95
2022-11-18T03:15:04.734Z,23.27
2022-11-18T03:18:28.400Z,25.92
2022-11-18T03:21:08.700Z,23.67
2022-11-18T03:23:52.129Z,20.33
2022-11-18T03:26:36.288Z,19.50
2022-11-18T03:29:18.983Z,24.20
2022-11-18T03:31:56.929Z,21.98
2022-11-18T03:34:49.611Z,22.33
2022-11-18T03:37:21.073Z,17.60
2022-11-18T03:39:59.300Z,18.58
2022-11-18T03:42:42.707Z,23.02
2022-11-18T03:45:25.330Z,19.25
2022-11-18T03:48:04.113Z,16.95
2022-11-18T03:50:40.722Z,21.35
2022-11-18T03:53:09.917Z,17.45
2022-11-18T03:55:44.758Z,20.70
2022-11-18T03:59:08.076Z,20.10
2022-11-18T04:01:56.255Z,19.60
2022-11-18T04:04:27.141Z,17.98
2022-11-18T04:07:27.156Z,20.25
2022-11-18T04:10:09.079Z,20.50
2022-11-18T04:12:46.082Z,20.63
2022-11-18T04:15:13.329Z,21.80
2022-11-18T04:17:43.162Z,20.75
2022-11-18T04:20:21.752Z,22.08
2022-11-18T04:22:49.457Z,22.65
2022-11-18T04:25:17.148Z,21.27
2022-11-18T04:27:44.614Z,20.65
2022-11-18T04:30:12.715Z,22.42
2022-11-18T04:32:42.295Z,22.02
2022-11-18T04:35:09.536Z,20.10
2022-11-18T04:37:37.045Z,20.67
2022-11-18T04:40:05.274Z,23.33
2022-11-18T04:42:32.946Z,23.60
2022-11-18T04:45:00.204Z,21.95
2022-11-18T04:47:27.658Z,20.10
2022-11-18T04:49:54.790Z,19.75
2022-11-18T04:52:22.413Z,20.67
2022-11-18T04:54:49.633Z,17.85
2022-11-18T04:57:17.100Z,16.55
2022-11-18T04:59:44.241Z,19.25
2022-11-18T05:02:12.760Z,21.42
2022-11-18T05:04:40.022Z,21.73
2022-11-18T05:07:08.040Z,23.00
2022-11-18T05:09:35.325Z,25.00
2022-11-18T05:12:21.260Z,26.17
2022-11-18T05:14:50.896Z,22.05
2022-11-18T05:17:19.465Z,21.20
2022-11-18T05:19:46.708Z,18.63
2022-11-18T05:22:15.800Z,16.27
2022-11-18T05:24:42.951Z,21.23
2022-11-18T05:27:11.774Z,22.05
2022-11-18T05:29:38.908Z,17.48
2022-11-18T05:32:06.476Z,21.73
2022-11-18T05:34:33.583Z,22.63
2022-11-18T05:37:01.064Z,18.90
2022-11-18T05:39:28.238Z,22.67
2022-11-18T05:42:13.957Z,25.15
2022-11-18T05:44:41.116Z,23.23
2022-11-18T05:47:08.697Z,24.17
2022-11-18T05:49:35.874Z,24.02
2022-11-18T05:52:03.570Z,28.75
2022-11-18T05:54:31.720Z,27.98
2022-11-18T05:56:59.241Z,27.60
2022-11-18T05:59:26.922Z,31.08
2022-11-18T06:02:13.121Z,26.63
2022-11-18T06:04:54.898Z,28.80
2022-11-18T06:07:41.882Z,27.88
2022-11-18T06:10:17.791Z,22.42
2022-11-18T06:12:49.847Z,24.90
2022-11-18T06:15:26.249Z,22.38
2022-11-18T06:18:23.324Z,21.27
2022-11-18T06:20:59.753Z,24.85
2022-11-18T06:23:35.718Z,23.38
2022-11-18T06:26:03.812Z,26.30
2022-11-18T06:28:31.714Z,25.17
2022-11-18T06:30:59.193Z,24.23
2022-11-18T06:33:26.647Z,24.08
2022-11-18T06:35:53.770Z,29.67
2022-11-18T06:38:25.138Z,29.00
2022-11-18T06:40:52.566Z,27.38
2022-11-18T06:43:38.681Z,29.70
2022-11-18T06:46:27.462Z,27.23
2022-11-18T06:48:55.006Z,27.48
2022-11-18T06:51:22.345Z,28.60
2022-11-18T06:53:50.218Z,24.02
2022-11-18T06:56:20.316Z,22.75
2022-11-18T06:58:52.517Z,20.77
2022-11-18T07:01:23.609Z,22.35
2022-11-18T07:03:52.225Z,21.83
2022-11-18T07:06:32.243Z,20.67
2022-11-18T07:09:07.175Z,21.38
2022-11-18T07:11:34.901Z,22.35
2022-11-18T07:14:02.643Z,25.83
2022-11-18T07:16:30.191Z,21.40
2022-11-18T07:18:57.807Z,23.15
2022-11-18T07:21:29.074Z,26.45
2022-11-18T07:23:57.235Z,21.83
2022-11-18T07:26:24.917Z,23.80
2022-11-18T07:28:53.898Z,23.92
2022-11-18T07:31:21.484Z,20.67
2022-11-18T07:33:50.019Z,21.55
2022-11-18T07:36:24.527Z,22.58
2022-11-18T07:38:53.100Z,23.40
2022-11-18T07:41:27.074Z,23.08
2022-11-18T07:44:00.538Z,22.10
2022-11-18T07:46:33.002Z,20.15
2022-11-18T07:49:04.056Z,23.88
2022-11-18T07:51:38.221Z,22.85
2022-11-18T07:54:12.004Z,22.58
2022-11-18T07:56:39.415Z,22.80
2022-11-18T07:59:07.835Z,23.38
2022-11-18T08:01:35.311Z,24.65
2022-11-18T08:04:13.129Z,23.90
2022-11-18T08:06:41.246Z,23.17
2022-11-18T08:09:09.654Z,24.17
2022-11-18T08:11:37.780Z,22.00
2022-11-18T08:14:05.545Z,25.50
2022-11-18T08:16:32.717Z,22.02
2022-11-18T08:19:01.014Z,20.85
2022-11-18T08:21:28.701Z,22.73
2022-11-18T08:23:58.198Z,23.98
2022-11-18T08:26:26.589Z,22.80
2022-11-18T08:28:54.599Z,25.30
2022-11-18T08:31:28.892Z,22.02
2022-11-18T08:34:02.847Z,23.63
2022-11-18T08:36:33.808Z,24.50
2022-11-18T08:39:04.748Z,24.08
2022-11-18T08:41:35.621Z,20.98
2022-11-18T08:44:05.504Z,22.52
2022-11-18T08:46:33.491Z,24.50
2022-11-18T08:49:01.462Z,28.60
2022-11-18T08:51:29.236Z,24.67
2022-11-18T08:53:57.335Z,23.67
2022-11-18T08:56:25.851Z,22.02
2022-11-18T08:58:53.791Z,25.35
2022-11-18T09:01:21.237Z,22.83
2022-11-18T09:03:49.551Z,26.73
2022-11-18T09:06:20.424Z,21.95
2022-11-18T09:08:48.595Z,26.00
2022-11-18T09:11:19.293Z,24.52
2022-11-18T09:14:32.740Z,23.52
2022-11-18T09:16:35.933Z,23.73
2022-11-18T09:19:31.590Z,23.35
2022-11-18T09:21:52.087Z,21.92
2022-11-18T09:24:19.819Z,22.33
2022-11-18T09:26:48.316Z,26.38
2022-11-18T09:29:15.602Z,27.30
2022-11-18T09:31:43.086Z,26.23
2022-11-18T09:34:10.545Z,27.15
2022-11-18T09:36:38.208Z,32.13
2022-11-18T09:39:05.656Z,27.23
2022-11-18T09:41:52.287Z,26.33
2022-11-18T09:45:19.408Z,25.75
2022-11-18T09:47:51.694Z,21.55
2022-11-18T09:53:23.806Z,26.90
2022-11-18T09:55:52.658Z,24.75
2022-11-18T09:58:28.083Z,23.13
2022-11-18T10:00:55.367Z,25.10
2022-11-18T10:03:32.730Z,24.13
2022-11-18T10:06:27.650Z,26.13
2022-11-18T10:09:11.094Z,24.30
2022-11-18T10:12:05.182Z,25.25
2022-11-18T10:14:57.364Z,26.58
2022-11-18T10:17:53.442Z,30.02
2022-11-18T10:20:44.957Z,28.55
2022-11-18T10:23:50.449Z,29.15
2022-11-18T10:26:38.482Z,31.08
2022-11-18T10:29:10.256Z,35.70
2022-11-18T10:31:40.806Z,33.35
2022-11-18T10:34:13.855Z,38.03
2022-11-18T10:36:41.374Z,41.83
2022-11-18T10:39:15.093Z,36.40
2022-11-18T10:41:49.797Z,40.60
2022-11-18T10:44:39.544Z,38.30
2022-11-18T10:47:27.441Z,34.53
2022-11-18T10:49:59.915Z,33.92
2022-11-18T10:52:30.054Z,36.33
2022-11-18T10:55:18.434Z,35.08
2022-11-18T10:57:47.650Z,39.20
2022-11-18T11:00:38.280Z,56.38
2022-11-18T11:03:37.874Z,45.80
2022-11-18T11:06:21.324Z,43.15
2022-11-18T11:09:10.189Z,41.17
2022-11-18T11:11:57.199Z,40.45
2022-11-18T11:14:52.412Z,37.60
2022-11-18T11:17:30.570Z,37.17
2022-11-18T11:20:04.393Z,42.28
2022-11-18T11:22:32.958Z,37.67
2022-11-18T11:25:00.537Z,40.78
2022-11-18T11:28:16.670Z,40.50
2022-11-18T11:31:12.836Z,41.75
2022-11-18T11:33:52.815Z,43.50
2022-11-18T11:36:57.551Z,38.97
2022-11-18T11:39:59.788Z,37.33
2022-11-18T11:42:54.103Z,39.35
2022-11-18T11:46:13.329Z,38.47
2022-11-18T11:48:56.879Z,37.30
2022-11-18T11:51:58.284Z,37.65
2022-11-18T11:54:38.032Z,37.70
2022-11-18T11:57:33.450Z,41.03
2022-11-18T12:00:09.379Z,39.92
2022-11-18T12:03:34.849Z,42.15
2022-11-18T12:06:02.358Z,38.90
2022-11-18T12:08:32.624Z,39.65
2022-11-18T12:11:25.901Z,40.90
2022-11-18T12:14:25.969Z,40.05
2022-11-18T12:17:25.108Z,38.53
2022-11-18T12:19:52.364Z,41.42
2022-11-18T12:22:19.829Z,41.28
2022-11-18T12:24:46.975Z,42.58
2022-11-18T12:27:30.441Z,42.45
2022-11-18T12:30:02.128Z,42.75
2022-11-18T12:32:46.702Z,41.67
2022-11-18T12:35:13.946Z,41.65
2022-11-18T12:37:52.178Z,40.40
2022-11-18T12:40:50.612Z,42.13
2022-11-18T12:43:44.505Z,49.42
2022-11-18T12:46:34.909Z,41.00
2022-11-18T12:49:22.654Z,41.90
2022-11-18T12:52:15.015Z,40.53
2022-11-18T12:54:49.236Z,45.50
2022-11-18T12:57:32.403Z,45.30
2022-11-18T13:00:17.188Z,39.15
2022-11-18T13:03:00.427Z,42.55
2022-11-18T13:05:32.912Z,36.30
2022-11-18T13:08:13.883Z,31.67
2022-11-18T13:11:37.319Z,34.22
2022-11-18T13:14:32.541Z,34.00
2022-11-18T13:17:18.855Z,33.92
2022-11-18T13:19:57.761Z,34.70
2022-11-18T13:22:44.021Z,38.55
2022-11-18T13:25:33.626Z,37.17
2022-11-18T13:28:31.879Z,30.73
2022-11-18T13:31:07.407Z,35.80
2022-11-18T13:33:38.607Z,35.28
2022-11-18T13:36:25.903Z,34.72
2022-11-18T13:39:03.384Z,34.35
2022-11-18T13:41:34.325Z,33.58
2022-11-18T13:44:24.267Z,35.60
2022-11-18T13:47:16.033Z,33.13
2022-11-18T13:50:11.696Z,27.55
2022-11-18T13:53:09.308Z,33.80
2022-11-18T13:55:54.221Z,31.15
2022-11-18T14:01:34.861Z,29.42
2022-11-18T14:04:22.589Z,30.35
2022-11-18T14:06:50.775Z,30.88
2022-11-18T14:09:27.178Z,30.52
2022-11-18T14:11:57.796Z,31.88
2022-11-18T14:14:43.671Z,34.58
2022-11-18T14:17:23.966Z,31.38
2022-11-18T14:19:55.420Z,33.53
2022-11-18T14:22:27.166Z,33.00
2022-11-18T14:25:17.304Z,34.45
2022-11-18T14:27:54.696Z,31.20
2022-11-18T14:30:32.348Z,34.50
2022-11-18T14:33:31.692Z,35.75
2022-11-18T14:36:13.505Z,35.55
2022-11-18T14:39:31.672Z,34.80
2022-11-18T14:41:48.673Z,40.17
2022-11-18T14:44:18.822Z,41.38
2022-11-18T14:47:03.746Z,38.20
2022-11-18T14:49:32.998Z,35.70
2022-11-18T14:52:04.711Z,37.63
2022-11-18T14:54:33.050Z,38.25
2022-11-18T14:57:05.657Z,37.63
2022-11-18T14:59:33.507Z,38.60
2022-11-18T15:02:00.996Z,33.08
2022-11-18T15:04:28.632Z,28.15
2022-11-18T15:06:56.274Z,26.60
2022-11-18T15:09:24.932Z,27.55
2022-11-18T15:11:52.169Z,27.10
2022-11-18T15:14:19.827Z,28.05
2022-11-18T15:16:47.198Z,28.08
2022-11-18T15:19:16.526Z,29.70
2022-11-18T15:21:45.680Z,31.23
2022-11-18T15:24:13.710Z,32.42
2022-11-18T15:26:46.902Z,35.17
2022-11-18T15:29:24.314Z,30.63
2022-11-18T15:31:51.952Z,29.98
2022-11-18T15:34:21.283Z,30.50
2022-11-18T15:36:49.843Z,29.20
2022-11-18T15:39:17.476Z,25.60
2022-11-18T15:41:44.753Z,26.65
2022-11-18T15:44:13.331Z,26.35
2022-11-18T15:46:40.881Z,27.60
2022-11-18T15:49:14.670Z,27.08
2022-11-18T15:51:42.233Z,32.28
2022-11-18T15:54:09.935Z,30.88
2022-11-18T15:56:38.505Z,32.33
2022-11-18T15:59:17.624Z,35.20
2022-11-18T16:01:49.173Z,36.45
2022-11-18T16:04:19.417Z,31.65
2022-11-18T16:06:47.793Z,34.00
2022-11-18T16:09:17.541Z,38.85
2022-11-18T16:12:03.513Z,34.30
2022-11-18T16:14:31.057Z,30.57
2022-11-18T16:16:58.420Z,36.45
2022-11-18T16:19:27.453Z,34.50
2022-11-18T16:21:57.214Z,41.35
2022-11-18T16:24:28.988Z,39.38
2022-11-18T16:26:57.413Z,34.60
2022-11-18T16:29:25.344Z,32.60
2022-11-18T16:34:41.851Z,37.53
2022-11-18T16:37:09.297Z,37.25
2022-11-18T16:39:36.770Z,41.22
2022-11-18T16:40:28.340Z,34.40
2022-11-18T16:42:08.640Z,40.83
2022-11-18T16:44:37.803Z,45.30
2022-11-18T16:47:13.763Z,46.13
2022-11-18T16:49:43.391Z,38.13
2022-11-18T16:52:10.704Z,40.45
2022-11-18T16:54:44.692Z,35.08
2022-11-18T16:57:13.829Z,34.60
2022-11-18T16:59:41.608Z,37.53
2022-11-18T17:02:13.416Z,35.65
2022-11-18T17:04:41.373Z,36.30
2022-11-18T17:07:08.692Z,34.22
2022-11-18T17:09:37.883Z,39.80
2022-11-18T17:12:05.673Z,37.88
2022-11-18T17:14:33.199Z,36.75
2022-11-18T17:17:00.456Z,36.35
2022-11-18T17:19:27.946Z,43.45
2022-11-18T17:21:55.111Z,43.80
2022-11-18T17:24:24.146Z,45.05
2022-11-18T17:26:52.783Z,48.03
2022-11-18T17:29:21.216Z,52.13
2022-11-18T17:31:49.123Z,56.85
2022-11-18T17:34:17.110Z,51.67
2022-11-18T17:36:44.867Z,43.67
2022-11-18T17:39:13.482Z,44.28
2022-11-18T17:41:59.405Z,40.47
2022-11-18T17:44:28.568Z,41.87
2022-11-18T17:46:56.048Z,43.83
2022-11-18T17:49:23.856Z,50.90
2022-11-18T17:51:51.747Z,44.40
2022-11-18T17:54:21.286Z,41.88
2022-11-18T17:56:52.340Z,41.60
2022-11-18T17:59:20.911Z,41.25
2022-11-18T18:01:49.918Z,41.47
2022-11-18T18:04:21.549Z,41.38
2022-11-18T18:06:51.323Z,42.03
2022-11-18T18:09:21.815Z,38.75
2022-11-18T18:11:52.578Z,39.35
2022-11-18T18:14:20.387Z,37.53
2022-11-18T18:16:50.930Z,43.42
2022-11-18T18:19:23.787Z,43.58
2022-11-18T18:21:51.093Z,43.67
2022-11-18T18:24:20.964Z,39.53
2022-11-18T18:26:49.089Z,37.95
2022-11-18T18:29:16.700Z,36.42
2022-11-18T18:31:50.635Z,35.90
2022-11-18T18:34:18.741Z,36.92
2022-11-18T18:36:46.354Z,32.10
2022-11-18T18:39:13.897Z,35.97
2022-11-18T18:41:41.153Z,35.00
2022-11-18T18:44:10.430Z,31.95
2022-11-18T18:46:40.930Z,33.72
2022-11-18T18:49:20.492Z,34.03
2022-11-18T18:51:55.571Z,36.23
2022-11-18T18:54:23.249Z,35.10
2022-11-18T18:56:50.527Z,34.90
2022-11-18T18:59:18.059Z,36.17
2022-11-18T19:01:45.579Z,34.17
2022-11-18T19:04:14.385Z,37.23
2022-11-18T19:06:54.934Z,33.97
2022-11-18T19:09:26.306Z,33.17
2022-11-18T19:12:12.766Z,30.30
2022-11-18T19:14:40.621Z,29.15
2022-11-18T19:17:12.650Z,34.22
2022-11-18T19:20:01.084Z,43.60
2022-11-18T19:22:33.427Z,42.63
2022-11-18T19:25:01.787Z,38.97
2022-11-18T19:27:30.253Z,44.25
2022-11-18T19:29:58.495Z,32.30
2022-11-18T19:32:25.985Z,31.67
2022-11-18T19:34:53.464Z,32.22
2022-11-18T19:37:20.809Z,27.35
2022-11-18T19:39:48.517Z,27.53
2022-11-18T19:42:15.912Z,28.25
2022-11-18T19:44:43.479Z,34.90
2022-11-18T19:47:11.020Z,34.33
2022-11-18T19:49:38.550Z,33.50
2022-11-18T19:52:05.789Z,29.67
2022-11-18T19:54:33.419Z,30.13
2022-11-18T19:57:03.949Z,26.17
2022-11-18T19:59:31.715Z,27.10
2022-11-18T20:01:59.187Z,28.00
2022-11-18T20:04:26.886Z,28.55
2022-11-18T20:06:54.281Z,27.87
2022-11-18T20:09:21.966Z,28.60
2022-11-18T20:11:49.572Z,28.35
2022-11-18T20:14:17.660Z,26.63
2022-11-18T20:16:44.929Z,29.13
2022-11-18T20:19:13.766Z,27.60
2022-11-18T20:21:43.469Z,27.63
2022-11-18T20:24:17.111Z,34.25
2022-11-18T20:26:45.355Z,38.50
2022-11-18T20:29:13.584Z,32.42
2022-11-18T20:31:41.699Z,24.65
2022-11-18T20:34:14.487Z,27.38
2022-11-18T20:36:42.341Z,26.85
2022-11-18T20:39:15.517Z,25.02
2022-11-18T20:41:43.711Z,24.67
2022-11-18T20:44:11.216Z,25.77
2022-11-18T20:46:38.431Z,24.02
2022-11-18T20:49:05.934Z,25.13
2022-11-18T20:51:33.188Z,29.10
2022-11-18T20:54:00.794Z,27.60
2022-11-18T20:56:28.619Z,27.88
2022-11-18T20:58:59.105Z,26.07
2022-11-18T21:01:29.710Z,26.60
2022-11-18T21:04:01.139Z,26.17
2022-11-18T21:06:31.694Z,23.97
2022-11-18T21:09:02.806Z,26.90
2022-11-18T21:11:34.725Z,21.23
2022-11-18T21:14:23.970Z,22.50
2022-11-18T21:16:55.649Z,19.83
2022-11-18T21:19:23.771Z,23.30
2022-11-18T21:21:53.910Z,24.60
2022-11-18T21:24:31.071Z,27.55
2022-11-18T21:26:59.863Z,25.60
2022-11-18T21:29:30.736Z,24.05
2022-11-18T21:32:02.267Z,20.08
2022-11-18T21:34:30.452Z,22.88
2022-11-18T21:36:58.218Z,18.77
2022-11-18T21:39:26.039Z,18.37
2022-11-18T21:41:56.790Z,16.65
2022-11-18T21:44:28.419Z,16.43
2022-11-18T21:46:56.494Z,20.73
2022-11-18T21:49:24.033Z,21.07
2022-11-18T21:51:51.244Z,22.27
2022-11-18T21:54:18.782Z,21.83
2022-11-18T21:56:46.042Z,26.73
2022-11-18T21:59:14.030Z,28.70
2022-11-18T22:01:41.201Z,32.23
2022-11-18T22:04:29.115Z,27.50
2022-11-18T22:06:56.383Z,37.00
2022-11-18T22:09:23.941Z,35.15
2022-11-18T22:11:51.057Z,32.60
2022-11-18T22:14:18.542Z,37.87
2022-11-18T22:16:45.726Z,47.40
2022-11-18T22:19:13.155Z,53.20
2022-11-18T22:21:40.321Z,50.30
2022-11-18T22:24:08.532Z,43.50
2022-11-18T22:26:35.686Z,38.70
2022-11-18T22:29:03.396Z,44.60
2022-11-18T22:31:30.754Z,41.97
2022-11-18T22:33:58.246Z,38.33
2022-11-18T22:36:26.919Z,41.35
2022-11-18T22:38:55.913Z,36.22
2022-11-18T22:41:45.344Z,37.72
2022-11-18T22:44:16.269Z,40.50
2022-11-18T22:46:45.291Z,40.97
2022-11-18T22:49:13.860Z,32.53
2022-11-18T22:51:41.412Z,35.75
2022-11-18T22:54:37.037Z,37.15
2022-11-18T22:56:57.260Z,35.55
2022-11-18T22:59:25.421Z,32.60
2022-11-18T23:01:53.064Z,31.58
2022-11-18T23:04:21.578Z,31.20
2022-11-18T23:06:49.948Z,30.98
2022-11-18T23:09:17.943Z,29.13
2022-11-18T23:12:04.348Z,25.25
2022-11-18T23:14:31.931Z,27.95
2022-11-18T23:16:59.649Z,29.50
2022-11-18T23:19:27.110Z,27.35
2022-11-18T23:21:54.230Z,25.73
2022-11-18T23:24:21.929Z,29.25
2022-11-18T23:26:49.327Z,30.77
2022-11-18T23:29:17.590Z,27.25
2022-11-18T23:31:45.639Z,26.08
2022-11-18T23:34:15.358Z,27.97
2022-11-18T23:36:42.697Z,30.07
2022-11-18T23:39:10.640Z,30.48
2022-11-18T23:41:38.716Z,28.45
2022-11-18T23:44:06.531Z,31.17
2022-11-18T23:46:34.776Z,29.27
2022-11-18T23:49:02.284Z,31.05
2022-11-18T23:51:29.527Z,33.90
2022-11-18T23:53:58.128Z,32.78
2022-11-18T23:56:27.923Z,28.90
2022-11-18T23:58:56.836Z,24.02
